Date,TemperatureHighF,TemperatureAvgF,TemperatureLowF,DewpointHighF,DewpointAvgF,DewpointLowF,HumidityHigh,HumidityAvg,HumidityLow,PressureMaxIn,PressureMinIn,WindSpeedMaxMPH,WindSpeedAvgMPH,GustSpeedMaxMPH,PrecipitationSumIn
2013-5-1,92,73,60,47,37,26,51,28,19,30.00,29.76,10,0,10,0.00
2013-5-2,97,74,54,50,43,33,73,38,18,30.08,29.99,6,0,6,0.00
2013-5-3,97,73,54,55,44,38,69,39,19,30.01,29.72,7,0,7,0.00
2013-5-4,95,72,56,54,47,41,70,44,19,29.73,29.46,14,0,14,0.00
2013-5-5,76,63,55,56,52,47,82,67,47,29.73,29.51,14,0,14,0.00
2013-5-6,71,62,57,61,55,50,94,78,57,29.89,29.72,8,0,8,0.26
2013-5-7,76,63,54,58,55,52,95,76,48,29.97,29.87,8,0,8,0.00
2013-5-8,74,61,53,58,54,50,93,78,53,30.07,29.95,8,0,8,0.00
2013-5-9,75,61,54,58,54,51,90,77,56,30.10,29.99,10,0,10,0.00
2013-5-10,82,64,54,63,56,51,90,77,52,30.11,30.00,8,0,8,0.00
2013-5-11,95,70,53,66,56,51,96,65,29,30.07,29.94,9,0,9,0.00
2013-5-12,90,71,56,64,56,51,88,64,38,30.05,29.94,8,0,8,0.00
2013-5-13,88,68,54,63,56,50,89,69,39,30.01,29.86,10,0,10,0.00
2013-5-14,83,66,54,61,54,49,90,68,40,29.94,29.84,8,0,8,0.00
2013-5-15,74,61,52,54,50,45,87,69,39,29.98,29.91,12,0,12,0.00
2013-5-16,76,61,55,60,55,50,96,80,55,29.96,29.89,9,0,9,0.02
2013-5-17,75,61,53,53,50,47,87,70,43,30.01,29.89,8,0,8,0.00
2013-5-18,81,63,50,58,52,46,90,70,40,30.05,29.99,7,0,7,0.00
2013-5-19,88,68,52,56,51,46,91,60,27,30.04,29.88,10,0,10,0.00
2013-5-20,94,71,52,54,49,42,85,52,20,29.93,29.84,9,0,9,0.00
2013-5-21,75,62,53,55,51,46,85,69,40,29.92,29.83,14,0,14,0.00
2013-5-22,73,57,46,47,41,29,88,59,26,29.93,29.82,10,0,10,0.00
2013-5-23,75,59,50,52,47,42,84,65,37,29.93,29.83,7,0,7,0.00
2013-5-24,78,59,46,53,47,40,89,67,32,29.92,29.87,11,0,11,0.00
2013-5-25,74,58,48,53,49,44,90,72,45,29.98,29.89,6,0,6,0.00
2013-5-26,77,62,54,59,54,50,94,76,52,30.06,29.97,9,0,9,0.00
2013-5-27,70,60,54,59,55,50,94,82,65,30.06,29.91,8,0,8,0.01
2013-5-28,76,64,58,61,58,53,96,80,56,29.93,29.83,7,0,7,0.00
2013-5-29,77,64,56,60,55,51,87,74,54,29.90,29.83,8,0,8,0.00
2013-5-30,83,64,50,55,50,47,91,66,33,29.91,29.85,7,0,7,0.00
2013-5-31,93,70,51,58,51,45,88,55,27,29.94,29.82,8,0,8,0.00